sensor_id;sensor_type;location;lat;lon;timestamp;P1;durP1;ratioP1;P2;durP2;ratioP2
49610;SDS011;35515;48.766;9.176;2023-05-29T00:00:56;8.52;;;6.07;;
49610;SDS011;35515;48.766;9.176;2023-05-29T00:03:24;8.45;;;5.28;;
49610;SDS011;35515;48.766;9.176;2023-05-29T00:05:51;9.00;;;6.05;;
49610;SDS011;35515;48.766;9.176;2023-05-29T00:08:17;11.90;;;5.90;;
49610;SDS011;35515;48.766;9.176;2023-05-29T00:10:44;9.52;;;6.13;;
49610;SDS011;35515;48.766;9.176;2023-05-29T00:13:12;11.13;;;5.97;;
49610;SDS011;35515;48.766;9.176;2023-05-29T00:15:38;9.25;;;5.93;;
49610;SDS011;35515;48.766;9.176;2023-05-29T00:18:05;10.38;;;6.20;;
49610;SDS011;35515;48.766;9.176;2023-05-29T00:20:31;9.60;;;5.60;;
49610;SDS011;35515;48.766;9.176;2023-05-29T00:22:59;8.27;;;5.57;;
49610;SDS011;35515;48.766;9.176;2023-05-29T00:25:26;12.05;;;5.88;;
49610;SDS011;35515;48.766;9.176;2023-05-29T00:27:53;8.77;;;5.85;;
49610;SDS011;35515;48.766;9.176;2023-05-29T00:30:21;9.18;;;5.43;;
49610;SDS011;35515;48.766;9.176;2023-05-29T00:32:48;11.57;;;5.22;;
49610;SDS011;35515;48.766;9.176;2023-05-29T00:35:14;8.90;;;5.18;;
49610;SDS011;35515;48.766;9.176;2023-05-29T00:37:41;9.50;;;5.50;;
49610;SDS011;35515;48.766;9.176;2023-05-29T00:40:08;8.07;;;5.40;;
49610;SDS011;35515;48.766;9.176;2023-05-29T00:42:35;9.02;;;6.10;;
49610;SDS011;35515;48.766;9.176;2023-05-29T00:45:01;15.80;;;6.40;;
49610;SDS011;35515;48.766;9.176;2023-05-29T00:47:30;8.77;;;5.72;;
49610;SDS011;35515;48.766;9.176;2023-05-29T00:49:56;8.07;;;5.72;;
49610;SDS011;35515;48.766;9.176;2023-05-29T00:52:23;9.20;;;6.32;;
49610;SDS011;35515;48.766;9.176;2023-05-29T00:54:52;9.65;;;6.28;;
49610;SDS011;35515;48.766;9.176;2023-05-29T00:57:19;8.48;;;5.50;;
49610;SDS011;35515;48.766;9.176;2023-05-29T00:59:46;10.10;;;5.50;;
49610;SDS011;35515;48.766;9.176;2023-05-29T01:02:13;9.50;;;5.80;;
49610;SDS011;35515;48.766;9.176;2023-05-29T01:04:42;8.70;;;5.80;;
49610;SDS011;35515;48.766;9.176;2023-05-29T01:07:10;9.80;;;5.38;;
49610;SDS011;35515;48.766;9.176;2023-05-29T01:09:37;9.32;;;6.00;;
49610;SDS011;35515;48.766;9.176;2023-05-29T01:12:08;8.88;;;5.90;;
49610;SDS011;35515;48.766;9.176;2023-05-29T01:14:52;10.27;;;5.63;;
49610;SDS011;35515;48.766;9.176;2023-05-29T01:17:28;9.35;;;5.95;;
49610;SDS011;35515;48.766;9.176;2023-05-29T01:20:11;11.20;;;5.65;;
49610;SDS011;35515;48.766;9.176;2023-05-29T01:22:53;9.15;;;5.70;;
49610;SDS011;35515;48.766;9.176;2023-05-29T01:28:40;8.43;;;5.38;;
49610;SDS011;35515;48.766;9.176;2023-05-29T01:31:09;7.78;;;5.35;;
49610;SDS011;35515;48.766;9.176;2023-05-29T01:33:38;8.02;;;6.00;;
49610;SDS011;35515;48.766;9.176;2023-05-29T01:36:05;9.85;;;5.22;;
49610;SDS011;35515;48.766;9.176;2023-05-29T01:38:33;9.55;;;5.55;;
49610;SDS011;35515;48.766;9.176;2023-05-29T01:40:59;9.65;;;5.20;;
49610;SDS011;35515;48.766;9.176;2023-05-29T01:43:26;8.20;;;5.00;;
49610;SDS011;35515;48.766;9.176;2023-05-29T01:45:55;9.55;;;5.32;;
49610;SDS011;35515;48.766;9.176;2023-05-29T01:48:22;8.70;;;5.40;;
49610;SDS011;35515;48.766;9.176;2023-05-29T01:50:49;9.27;;;5.05;;
49610;SDS011;35515;48.766;9.176;2023-05-29T01:53:16;8.95;;;5.20;;
49610;SDS011;35515;48.766;9.176;2023-05-29T01:55:43;6.60;;;4.85;;
49610;SDS011;35515;48.766;9.176;2023-05-29T01:58:10;10.55;;;5.30;;
49610;SDS011;35515;48.766;9.176;2023-05-29T02:00:37;8.27;;;5.40;;
49610;SDS011;35515;48.766;9.176;2023-05-29T02:03:06;11.93;;;4.65;;
49610;SDS011;35515;48.766;9.176;2023-05-29T02:05:33;8.80;;;5.65;;
49610;SDS011;35515;48.766;9.176;2023-05-29T02:07:59;7.72;;;4.72;;
49610;SDS011;35515;48.766;9.176;2023-05-29T02:10:26;7.93;;;5.22;;
49610;SDS011;35515;48.766;9.176;2023-05-29T02:12:52;9.48;;;5.22;;
49610;SDS011;35515;48.766;9.176;2023-05-29T02:15:19;8.57;;;5.45;;
49610;SDS011;35515;48.766;9.176;2023-05-29T02:17:45;7.95;;;5.07;;
49610;SDS011;35515;48.766;9.176;2023-05-29T02:20:13;8.40;;;5.13;;
49610;SDS011;35515;48.766;9.176;2023-05-29T02:22:40;7.93;;;5.40;;
49610;SDS011;35515;48.766;9.176;2023-05-29T02:25:07;9.43;;;5.25;;
49610;SDS011;35515;48.766;9.176;2023-05-29T02:27:34;8.05;;;4.82;;
49610;SDS011;35515;48.766;9.176;2023-05-29T02:30:01;7.63;;;5.03;;
49610;SDS011;35515;48.766;9.176;2023-05-29T02:32:28;8.07;;;5.55;;
49610;SDS011;35515;48.766;9.176;2023-05-29T02:34:54;9.68;;;5.05;;
49610;SDS011;35515;48.766;9.176;2023-05-29T02:37:22;8.02;;;5.13;;
49610;SDS011;35515;48.766;9.176;2023-05-29T02:39:50;7.45;;;4.68;;
49610;SDS011;35515;48.766;9.176;2023-05-29T02:42:17;9.63;;;5.35;;
49610;SDS011;35515;48.766;9.176;2023-05-29T02:44:43;7.10;;;4.60;;
49610;SDS011;35515;48.766;9.176;2023-05-29T02:47:10;9.13;;;5.07;;
49610;SDS011;35515;48.766;9.176;2023-05-29T02:49:37;5.63;;;4.32;;
49610;SDS011;35515;48.766;9.176;2023-05-29T02:52:03;7.72;;;5.22;;
49610;SDS011;35515;48.766;9.176;2023-05-29T02:54:32;8.88;;;5.55;;
49610;SDS011;35515;48.766;9.176;2023-05-29T02:56:58;8.95;;;5.07;;
49610;SDS011;35515;48.766;9.176;2023-05-29T02:59:25;10.07;;;5.43;;
49610;SDS011;35515;48.766;9.176;2023-05-29T03:01:51;7.70;;;5.05;;
49610;SDS011;35515;48.766;9.176;2023-05-29T03:04:18;9.27;;;5.10;;
49610;SDS011;35515;48.766;9.176;2023-05-29T03:06:44;8.88;;;5.20;;
49610;SDS011;35515;48.766;9.176;2023-05-29T03:09:12;9.27;;;4.57;;
49610;SDS011;35515;48.766;9.176;2023-05-29T03:11:40;10.15;;;6.03;;
49610;SDS011;35515;48.766;9.176;2023-05-29T03:14:06;9.13;;;4.47;;
49610;SDS011;35515;48.766;9.176;2023-05-29T03:16:33;8.10;;;4.90;;
49610;SDS011;35515;48.766;9.176;2023-05-29T03:19:01;8.52;;;4.93;;
49610;SDS011;35515;48.766;9.176;2023-05-29T03:21:27;7.25;;;4.88;;
49610;SDS011;35515;48.766;9.176;2023-05-29T03:23:54;7.75;;;4.88;;
49610;SDS011;35515;48.766;9.176;2023-05-29T03:26:21;9.05;;;5.45;;
49610;SDS011;35515;48.766;9.176;2023-05-29T03:28:48;9.32;;;4.72;;
49610;SDS011;35515;48.766;9.176;2023-05-29T03:31:15;9.13;;;5.43;;
49610;SDS011;35515;48.766;9.176;2023-05-29T03:33:41;7.70;;;5.35;;
49610;SDS011;35515;48.766;9.176;2023-05-29T03:36:08;7.88;;;5.18;;
49610;SDS011;35515;48.766;9.176;2023-05-29T03:38:36;9.75;;;5.50;;
49610;SDS011;35515;48.766;9.176;2023-05-29T03:41:02;9.23;;;5.60;;
49610;SDS011;35515;48.766;9.176;2023-05-29T03:43:29;9.20;;;4.85;;
49610;SDS011;35515;48.766;9.176;2023-05-29T03:45:57;7.07;;;5.07;;
49610;SDS011;35515;48.766;9.176;2023-05-29T03:48:23;7.70;;;5.07;;
49610;SDS011;35515;48.766;9.176;2023-05-29T03:50:50;8.75;;;5.50;;
49610;SDS011;35515;48.766;9.176;2023-05-29T03:53:16;8.35;;;5.20;;
49610;SDS011;35515;48.766;9.176;2023-05-29T03:55:43;9.93;;;5.03;;
49610;SDS011;35515;48.766;9.176;2023-05-29T03:58:09;8.43;;;4.90;;
49610;SDS011;35515;48.766;9.176;2023-05-29T04:00:37;8.10;;;4.65;;
49610;SDS011;35515;48.766;9.176;2023-05-29T04:03:05;8.55;;;5.47;;
49610;SDS011;35515;48.766;9.176;2023-05-29T04:05:32;9.90;;;5.53;;
49610;SDS011;35515;48.766;9.176;2023-05-29T04:07:58;6.47;;;4.70;;
49610;SDS011;35515;48.766;9.176;2023-05-29T04:10:25;8.90;;;5.20;;
49610;SDS011;35515;48.766;9.176;2023-05-29T04:12:52;10.70;;;5.68;;
49610;SDS011;35515;48.766;9.176;2023-05-29T04:15:19;10.82;;;5.22;;
49610;SDS011;35515;48.766;9.176;2023-05-29T04:17:46;10.43;;;5.43;;
49610;SDS011;35515;48.766;9.176;2023-05-29T04:20:15;10.57;;;5.25;;
49610;SDS011;35515;48.766;9.176;2023-05-29T04:22:41;10.25;;;5.40;;
49610;SDS011;35515;48.766;9.176;2023-05-29T04:25:08;7.38;;;4.72;;
49610;SDS011;35515;48.766;9.176;2023-05-29T04:27:34;8.77;;;5.13;;
49610;SDS011;35515;48.766;9.176;2023-05-29T04:30:02;9.23;;;5.57;;
49610;SDS011;35515;48.766;9.176;2023-05-29T04:32:29;9.15;;;5.13;;
49610;SDS011;35515;48.766;9.176;2023-05-29T04:34:58;10.20;;;5.07;;
49610;SDS011;35515;48.766;9.176;2023-05-29T04:37:28;8.50;;;5.28;;
49610;SDS011;35515;48.766;9.176;2023-05-29T04:39:56;7.95;;;5.15;;
49610;SDS011;35515;48.766;9.176;2023-05-29T04:42:23;8.73;;;5.53;;
49610;SDS011;35515;48.766;9.176;2023-05-29T04:44:50;8.18;;;5.20;;
49610;SDS011;35515;48.766;9.176;2023-05-29T04:47:17;9.95;;;5.10;;
49610;SDS011;35515;48.766;9.176;2023-05-29T04:49:44;8.43;;;5.22;;
49610;SDS011;35515;48.766;9.176;2023-05-29T04:52:13;9.68;;;5.53;;
49610;SDS011;35515;48.766;9.176;2023-05-29T04:54:41;10.38;;;5.10;;
49610;SDS011;35515;48.766;9.176;2023-05-29T04:57:08;9.02;;;5.05;;
49610;SDS011;35515;48.766;9.176;2023-05-29T04:59:35;6.65;;;4.68;;
49610;SDS011;35515;48.766;9.176;2023-05-29T05:02:02;9.55;;;4.60;;
49610;SDS011;35515;48.766;9.176;2023-05-29T05:04:28;9.00;;;5.10;;
49610;SDS011;35515;48.766;9.176;2023-05-29T05:06:55;7.38;;;5.00;;
49610;SDS011;35515;48.766;9.176;2023-05-29T05:09:21;11.98;;;5.55;;
49610;SDS011;35515;48.766;9.176;2023-05-29T05:11:49;6.45;;;4.65;;
49610;SDS011;35515;48.766;9.176;2023-05-29T05:14:16;7.75;;;5.53;;
49610;SDS011;35515;48.766;9.176;2023-05-29T05:16:42;10.18;;;5.03;;
49610;SDS011;35515;48.766;9.176;2023-05-29T05:19:09;8.45;;;5.40;;
49610;SDS011;35515;48.766;9.176;2023-05-29T05:21:35;7.13;;;4.57;;
49610;SDS011;35515;48.766;9.176;2023-05-29T05:24:02;6.95;;;5.03;;
49610;SDS011;35515;48.766;9.176;2023-05-29T05:26:29;7.03;;;4.97;;
49610;SDS011;35515;48.766;9.176;2023-05-29T05:28:57;7.43;;;5.07;;
49610;SDS011;35515;48.766;9.176;2023-05-29T05:31:23;8.77;;;5.28;;
49610;SDS011;35515;48.766;9.176;2023-05-29T05:33:50;10.57;;;5.55;;
49610;SDS011;35515;48.766;9.176;2023-05-29T05:36:17;8.57;;;5.32;;
49610;SDS011;35515;48.766;9.176;2023-05-29T05:38:43;10.10;;;5.47;;
49610;SDS011;35515;48.766;9.176;2023-05-29T05:41:10;8.02;;;5.43;;
49610;SDS011;35515;48.766;9.176;2023-05-29T05:43:36;7.93;;;5.20;;
49610;SDS011;35515;48.766;9.176;2023-05-29T05:46:04;9.35;;;5.18;;
49610;SDS011;35515;48.766;9.176;2023-05-29T05:48:31;13.40;;;5.75;;
49610;SDS011;35515;48.766;9.176;2023-05-29T05:50:57;7.90;;;5.10;;
49610;SDS011;35515;48.766;9.176;2023-05-29T05:53:24;8.77;;;5.05;;
49610;SDS011;35515;48.766;9.176;2023-05-29T05:55:51;8.85;;;5.22;;
49610;SDS011;35515;48.766;9.176;2023-05-29T05:58:17;10.43;;;5.85;;
49610;SDS011;35515;48.766;9.176;2023-05-29T06:00:44;8.52;;;5.63;;
49610;SDS011;35515;48.766;9.176;2023-05-29T06:03:12;8.95;;;5.07;;
49610;SDS011;35515;48.766;9.176;2023-05-29T06:05:39;13.68;;;5.00;;
49610;SDS011;35515;48.766;9.176;2023-05-29T06:08:06;9.77;;;5.80;;
49610;SDS011;35515;48.766;9.176;2023-05-29T06:10:34;7.65;;;5.57;;
49610;SDS011;35515;48.766;9.176;2023-05-29T06:13:01;10.13;;;5.80;;
49610;SDS011;35515;48.766;9.176;2023-05-29T06:15:27;10.10;;;4.82;;
49610;SDS011;35515;48.766;9.176;2023-05-29T06:17:54;7.68;;;5.28;;
49610;SDS011;35515;48.766;9.176;2023-05-29T06:20:22;6.75;;;5.22;;
49610;SDS011;35515;48.766;9.176;2023-05-29T06:22:49;11.43;;;5.55;;
49610;SDS011;35515;48.766;9.176;2023-05-29T06:25:15;9.25;;;5.20;;
49610;SDS011;35515;48.766;9.176;2023-05-29T06:27:43;7.97;;;5.40;;
49610;SDS011;35515;48.766;9.176;2023-05-29T06:30:10;10.13;;;5.30;;
49610;SDS011;35515;48.766;9.176;2023-05-29T06:32:37;8.00;;;5.40;;
49610;SDS011;35515;48.766;9.176;2023-05-29T06:35:04;8.10;;;4.50;;
49610;SDS011;35515;48.766;9.176;2023-05-29T06:37:33;7.85;;;5.25;;
49610;SDS011;35515;48.766;9.176;2023-05-29T06:39:59;9.60;;;5.80;;
49610;SDS011;35515;48.766;9.176;2023-05-29T06:42:26;9.27;;;5.18;;
49610;SDS011;35515;48.766;9.176;2023-05-29T06:44:52;10.10;;;5.65;;
49610;SDS011;35515;48.766;9.176;2023-05-29T06:47:19;10.82;;;5.75;;
49610;SDS011;35515;48.766;9.176;2023-05-29T06:49:45;8.32;;;5.07;;
49610;SDS011;35515;48.766;9.176;2023-05-29T06:52:12;7.70;;;4.97;;
49610;SDS011;35515;48.766;9.176;2023-05-29T06:54:40;10.95;;;5.00;;
49610;SDS011;35515;48.766;9.176;2023-05-29T06:57:06;10.75;;;5.05;;
49610;SDS011;35515;48.766;9.176;2023-05-29T06:59:33;10.05;;;5.63;;
49610;SDS011;35515;48.766;9.176;2023-05-29T07:02:00;10.45;;;4.80;;
49610;SDS011;35515;48.766;9.176;2023-05-29T07:04:26;8.75;;;4.80;;
49610;SDS011;35515;48.766;9.176;2023-05-29T07:06:53;7.78;;;4.95;;
49610;SDS011;35515;48.766;9.176;2023-05-29T07:09:20;8.68;;;4.88;;
49610;SDS011;35515;48.766;9.176;2023-05-29T07:11:48;12.68;;;5.40;;
49610;SDS011;35515;48.766;9.176;2023-05-29T07:14:14;7.70;;;4.65;;
49610;SDS011;35515;48.766;9.176;2023-05-29T07:16:41;8.43;;;5.25;;
49610;SDS011;35515;48.766;9.176;2023-05-29T07:19:07;8.90;;;4.78;;
49610;SDS011;35515;48.766;9.176;2023-05-29T07:21:36;9.23;;;5.47;;
49610;SDS011;35515;48.766;9.176;2023-05-29T07:24:03;8.25;;;5.22;;
49610;SDS011;35515;48.766;9.176;2023-05-29T07:26:30;7.72;;;4.88;;
49610;SDS011;35515;48.766;9.176;2023-05-29T07:28:58;9.63;;;4.88;;
49610;SDS011;35515;48.766;9.176;2023-05-29T07:31:24;10.25;;;6.00;;
49610;SDS011;35515;48.766;9.176;2023-05-29T07:33:51;9.90;;;5.18;;
49610;SDS011;35515;48.766;9.176;2023-05-29T07:36:18;10.65;;;4.90;;
49610;SDS011;35515;48.766;9.176;2023-05-29T07:38:44;6.97;;;5.22;;
49610;SDS011;35515;48.766;9.176;2023-05-29T07:41:11;7.47;;;4.85;;
49610;SDS011;35515;48.766;9.176;2023-05-29T07:43:37;7.63;;;5.05;;
49610;SDS011;35515;48.766;9.176;2023-05-29T07:46:05;9.30;;;5.93;;
49610;SDS011;35515;48.766;9.176;2023-05-29T07:48:32;8.60;;;5.03;;
49610;SDS011;35515;48.766;9.176;2023-05-29T07:50:58;7.82;;;4.95;;
49610;SDS011;35515;48.766;9.176;2023-05-29T07:53:25;7.72;;;4.63;;
49610;SDS011;35515;48.766;9.176;2023-05-29T07:55:51;6.93;;;4.43;;
49610;SDS011;35515;48.766;9.176;2023-05-29T07:58:18;9.57;;;5.13;;
49610;SDS011;35515;48.766;9.176;2023-05-29T08:00:45;7.55;;;4.95;;
49610;SDS011;35515;48.766;9.176;2023-05-29T08:03:13;6.93;;;4.60;;
49610;SDS011;35515;48.766;9.176;2023-05-29T08:05:40;7.35;;;4.50;;
49610;SDS011;35515;48.766;9.176;2023-05-29T08:08:07;7.10;;;4.60;;
49610;SDS011;35515;48.766;9.176;2023-05-29T08:10:33;9.90;;;4.97;;
49610;SDS011;35515;48.766;9.176;2023-05-29T08:13:00;6.57;;;4.47;;
49610;SDS011;35515;48.766;9.176;2023-05-29T08:15:26;6.82;;;5.07;;
49610;SDS011;35515;48.766;9.176;2023-05-29T08:17:53;7.63;;;4.80;;
49610;SDS011;35515;48.766;9.176;2023-05-29T08:20:21;12.02;;;5.10;;
49610;SDS011;35515;48.766;9.176;2023-05-29T08:22:47;7.43;;;5.20;;
49610;SDS011;35515;48.766;9.176;2023-05-29T08:25:15;8.63;;;4.95;;
49610;SDS011;35515;48.766;9.176;2023-05-29T08:27:42;9.18;;;4.78;;
49610;SDS011;35515;48.766;9.176;2023-05-29T08:30:09;10.38;;;6.38;;
49610;SDS011;35515;48.766;9.176;2023-05-29T08:32:36;9.05;;;5.15;;
49610;SDS011;35515;48.766;9.176;2023-05-29T08:35:03;7.38;;;4.45;;
49610;SDS011;35515;48.766;9.176;2023-05-29T08:37:32;9.85;;;5.50;;
49610;SDS011;35515;48.766;9.176;2023-05-29T08:39:58;6.88;;;4.85;;
49610;SDS011;35515;48.766;9.176;2023-05-29T08:42:26;9.15;;;4.75;;
49610;SDS011;35515;48.766;9.176;2023-05-29T08:44:58;8.85;;;4.78;;
49610;SDS011;35515;48.766;9.176;2023-05-29T08:47:30;9.95;;;4.43;;
49610;SDS011;35515;48.766;9.176;2023-05-29T08:49:58;9.13;;;4.70;;
49610;SDS011;35515;48.766;9.176;2023-05-29T08:52:27;10.93;;;4.88;;
49610;SDS011;35515;48.766;9.176;2023-05-29T08:55:02;10.85;;;5.78;;
49610;SDS011;35515;48.766;9.176;2023-05-29T08:57:29;8.30;;;4.53;;
49610;SDS011;35515;48.766;9.176;2023-05-29T08:59:56;10.75;;;5.20;;
49610;SDS011;35515;48.766;9.176;2023-05-29T09:02:23;10.98;;;4.85;;
49610;SDS011;35515;48.766;9.176;2023-05-29T09:04:49;9.38;;;5.20;;
49610;SDS011;35515;48.766;9.176;2023-05-29T09:07:18;8.77;;;5.20;;
49610;SDS011;35515;48.766;9.176;2023-05-29T09:09:45;9.90;;;4.78;;
49610;SDS011;35515;48.766;9.176;2023-05-29T09:12:13;10.43;;;4.60;;
49610;SDS011;35515;48.766;9.176;2023-05-29T09:14:41;9.35;;;4.45;;
49610;SDS011;35515;48.766;9.176;2023-05-29T09:17:09;10.45;;;4.70;;
49610;SDS011;35515;48.766;9.176;2023-05-29T09:19:37;9.35;;;4.78;;
49610;SDS011;35515;48.766;9.176;2023-05-29T09:22:06;13.13;;;5.18;;
49610;SDS011;35515;48.766;9.176;2023-05-29T09:24:35;8.57;;;4.78;;
49610;SDS011;35515;48.766;9.176;2023-05-29T09:27:03;7.38;;;4.65;;
49610;SDS011;35515;48.766;9.176;2023-05-29T09:29:31;10.90;;;4.63;;
49610;SDS011;35515;48.766;9.176;2023-05-29T09:31:58;9.18;;;4.32;;
49610;SDS011;35515;48.766;9.176;2023-05-29T09:34:25;8.30;;;4.05;;
49610;SDS011;35515;48.766;9.176;2023-05-29T09:36:53;8.70;;;4.70;;
49610;SDS011;35515;48.766;9.176;2023-05-29T09:39:32;8.48;;;4.35;;
49610;SDS011;35515;48.766;9.176;2023-05-29T09:41:59;8.80;;;4.72;;
49610;SDS011;35515;48.766;9.176;2023-05-29T09:44:26;9.23;;;4.90;;
49610;SDS011;35515;48.766;9.176;2023-05-29T09:46:58;8.20;;;4.53;;
49610;SDS011;35515;48.766;9.176;2023-05-29T09:49:25;8.27;;;5.03;;
49610;SDS011;35515;48.766;9.176;2023-05-29T09:51:53;6.60;;;4.85;;
49610;SDS011;35515;48.766;9.176;2023-05-29T09:54:20;11.10;;;5.05;;
49610;SDS011;35515;48.766;9.176;2023-05-29T09:56:47;9.05;;;5.05;;
49610;SDS011;35515;48.766;9.176;2023-05-29T09:59:14;42.65;;;7.30;;
49610;SDS011;35515;48.766;9.176;2023-05-29T10:01:43;9.45;;;4.82;;
49610;SDS011;35515;48.766;9.176;2023-05-29T10:04:11;8.45;;;5.10;;
49610;SDS011;35515;48.766;9.176;2023-05-29T10:06:41;6.35;;;4.50;;
49610;SDS011;35515;48.766;9.176;2023-05-29T10:09:12;8.23;;;4.32;;
49610;SDS011;35515;48.766;9.176;2023-05-29T10:11:42;6.57;;;4.20;;
49610;SDS011;35515;48.766;9.176;2023-05-29T10:14:11;7.20;;;4.50;;
49610;SDS011;35515;48.766;9.176;2023-05-29T10:16:41;9.35;;;4.80;;
49610;SDS011;35515;48.766;9.176;2023-05-29T10:19:10;6.75;;;4.18;;
49610;SDS011;35515;48.766;9.176;2023-05-29T10:21:43;6.03;;;4.03;;
49610;SDS011;35515;48.766;9.176;2023-05-29T10:24:10;8.75;;;4.60;;
49610;SDS011;35515;48.766;9.176;2023-05-29T10:26:38;5.75;;;3.95;;
49610;SDS011;35515;48.766;9.176;2023-05-29T10:29:08;9.85;;;4.40;;
49610;SDS011;35515;48.766;9.176;2023-05-29T10:31:40;9.45;;;4.80;;
49610;SDS011;35515;48.766;9.176;2023-05-29T10:34:18;8.25;;;3.92;;
49610;SDS011;35515;48.766;9.176;2023-05-29T10:36:55;6.32;;;3.97;;
49610;SDS011;35515;48.766;9.176;2023-05-29T10:39:28;7.22;;;4.22;;
49610;SDS011;35515;48.766;9.176;2023-05-29T10:41:55;7.95;;;4.53;;
49610;SDS011;35515;48.766;9.176;2023-05-29T10:44:38;7.78;;;4.20;;
49610;SDS011;35515;48.766;9.176;2023-05-29T10:47:08;6.88;;;4.22;;
49610;SDS011;35515;48.766;9.176;2023-05-29T10:49:38;7.95;;;3.97;;
49610;SDS011;35515;48.766;9.176;2023-05-29T10:52:05;6.00;;;3.78;;
49610;SDS011;35515;48.766;9.176;2023-05-29T10:54:50;6.47;;;3.85;;
49610;SDS011;35515;48.766;9.176;2023-05-29T10:57:18;5.88;;;4.22;;
49610;SDS011;35515;48.766;9.176;2023-05-29T10:59:47;7.90;;;4.47;;
49610;SDS011;35515;48.766;9.176;2023-05-29T11:02:17;7.72;;;4.20;;
49610;SDS011;35515;48.766;9.176;2023-05-29T11:04:46;6.57;;;3.78;;
49610;SDS011;35515;48.766;9.176;2023-05-29T11:07:34;6.68;;;4.03;;
49610;SDS011;35515;48.766;9.176;2023-05-29T11:10:10;5.82;;;3.60;;
49610;SDS011;35515;48.766;9.176;2023-05-29T11:15:23;7.72;;;3.90;;
49610;SDS011;35515;48.766;9.176;2023-05-29T11:17:50;6.32;;;3.67;;
49610;SDS011;35515;48.766;9.176;2023-05-29T11:20:27;5.82;;;3.65;;
49610;SDS011;35515;48.766;9.176;2023-05-29T11:23:02;6.03;;;4.03;;
49610;SDS011;35515;48.766;9.176;2023-05-29T11:25:33;7.95;;;3.60;;
49610;SDS011;35515;48.766;9.176;2023-05-29T11:28:01;7.50;;;3.85;;
49610;SDS011;35515;48.766;9.176;2023-05-29T11:30:33;9.13;;;3.55;;
49610;SDS011;35515;48.766;9.176;2023-05-29T11:33:07;7.22;;;3.47;;
49610;SDS011;35515;48.766;9.176;2023-05-29T11:35:38;6.87;;;4.00;;
49610;SDS011;35515;48.766;9.176;2023-05-29T11:38:06;8.77;;;3.67;;
49610;SDS011;35515;48.766;9.176;2023-05-29T11:40:35;11.30;;;4.03;;
49610;SDS011;35515;48.766;9.176;2023-05-29T11:43:02;8.27;;;4.85;;
49610;SDS011;35515;48.766;9.176;2023-05-29T11:45:31;7.68;;;3.78;;
49610;SDS011;35515;48.766;9.176;2023-05-29T11:47:59;6.97;;;3.90;;
49610;SDS011;35515;48.766;9.176;2023-05-29T11:50:27;8.60;;;4.75;;
49610;SDS011;35515;48.766;9.176;2023-05-29T11:52:56;5.63;;;3.55;;
49610;SDS011;35515;48.766;9.176;2023-05-29T11:55:24;5.90;;;3.50;;
49610;SDS011;35515;48.766;9.176;2023-05-29T11:57:55;5.70;;;3.72;;
49610;SDS011;35515;48.766;9.176;2023-05-29T12:00:22;7.35;;;3.53;;
49610;SDS011;35515;48.766;9.176;2023-05-29T12:02:49;5.90;;;3.67;;
49610;SDS011;35515;48.766;9.176;2023-05-29T12:05:17;7.93;;;3.67;;
49610;SDS011;35515;48.766;9.176;2023-05-29T12:07:47;6.47;;;3.38;;
49610;SDS011;35515;48.766;9.176;2023-05-29T12:10:16;8.02;;;3.97;;
49610;SDS011;35515;48.766;9.176;2023-05-29T12:12:46;5.75;;;3.83;;
49610;SDS011;35515;48.766;9.176;2023-05-29T12:15:14;5.88;;;3.53;;
49610;SDS011;35515;48.766;9.176;2023-05-29T12:17:42;6.35;;;3.45;;
49610;SDS011;35515;48.766;9.176;2023-05-29T12:20:10;4.95;;;3.20;;
49610;SDS011;35515;48.766;9.176;2023-05-29T12:22:38;5.68;;;3.15;;
49610;SDS011;35515;48.766;9.176;2023-05-29T12:25:06;5.30;;;3.20;;
49610;SDS011;35515;48.766;9.176;2023-05-29T12:27:36;5.82;;;2.85;;
49610;SDS011;35515;48.766;9.176;2023-05-29T12:30:08;8.23;;;2.95;;
49610;SDS011;35515;48.766;9.176;2023-05-29T12:32:35;5.65;;;3.22;;
49610;SDS011;35515;48.766;9.176;2023-05-29T12:35:09;4.80;;;2.95;;
49610;SDS011;35515;48.766;9.176;2023-05-29T12:37:43;5.88;;;3.25;;
49610;SDS011;35515;48.766;9.176;2023-05-29T12:40:15;5.32;;;3.30;;
49610;SDS011;35515;48.766;9.176;2023-05-29T12:42:43;6.63;;;3.33;;
49610;SDS011;35515;48.766;9.176;2023-05-29T12:45:10;4.82;;;2.90;;
49610;SDS011;35515;48.766;9.176;2023-05-29T12:47:38;4.90;;;3.20;;
49610;SDS011;35515;48.766;9.176;2023-05-29T12:50:20;6.63;;;2.65;;
49610;SDS011;35515;48.766;9.176;2023-05-29T12:52:55;6.10;;;3.13;;
49610;SDS011;35515;48.766;9.176;2023-05-29T12:55:23;7.38;;;3.33;;
49610;SDS011;35515;48.766;9.176;2023-05-29T12:57:51;6.25;;;3.95;;
49610;SDS011;35515;48.766;9.176;2023-05-29T13:00:18;5.55;;;3.38;;
49610;SDS011;35515;48.766;9.176;2023-05-29T13:02:46;4.63;;;3.10;;
49610;SDS011;35515;48.766;9.176;2023-05-29T13:05:13;5.03;;;3.13;;
49610;SDS011;35515;48.766;9.176;2023-05-29T13:07:40;5.80;;;3.42;;
49610;SDS011;35515;48.766;9.176;2023-05-29T13:10:07;5.82;;;3.00;;
49610;SDS011;35515;48.766;9.176;2023-05-29T13:12:35;7.32;;;3.40;;
49610;SDS011;35515;48.766;9.176;2023-05-29T13:15:03;4.85;;;3.00;;
49610;SDS011;35515;48.766;9.176;2023-05-29T13:17:30;4.68;;;3.00;;
49610;SDS011;35515;48.766;9.176;2023-05-29T13:19:57;6.43;;;3.17;;
49610;SDS011;35515;48.766;9.176;2023-05-29T13:22:23;5.65;;;3.55;;
49610;SDS011;35515;48.766;9.176;2023-05-29T13:24:57;4.65;;;3.63;;
49610;SDS011;35515;48.766;9.176;2023-05-29T13:27:24;4.97;;;3.10;;
49610;SDS011;35515;48.766;9.176;2023-05-29T13:29:51;7.60;;;3.25;;
49610;SDS011;35515;48.766;9.176;2023-05-29T13:32:20;6.05;;;3.38;;
49610;SDS011;35515;48.766;9.176;2023-05-29T13:34:46;4.55;;;2.85;;
49610;SDS011;35515;48.766;9.176;2023-05-29T13:37:16;5.55;;;3.40;;
49610;SDS011;35515;48.766;9.176;2023-05-29T13:39:42;6.63;;;4.00;;
49610;SDS011;35515;48.766;9.176;2023-05-29T13:42:15;7.15;;;3.17;;
49610;SDS011;35515;48.766;9.176;2023-05-29T13:44:42;5.82;;;2.92;;
49610;SDS011;35515;48.766;9.176;2023-05-29T13:47:08;5.80;;;3.33;;
49610;SDS011;35515;48.766;9.176;2023-05-29T13:49:36;5.25;;;3.20;;
49610;SDS011;35515;48.766;9.176;2023-05-29T13:52:03;5.03;;;2.95;;
49610;SDS011;35515;48.766;9.176;2023-05-29T13:54:30;6.10;;;3.65;;
49610;SDS011;35515;48.766;9.176;2023-05-29T13:57:00;6.37;;;3.10;;
49610;SDS011;35515;48.766;9.176;2023-05-29T13:59:27;4.20;;;3.05;;
49610;SDS011;35515;48.766;9.176;2023-05-29T14:01:53;6.25;;;3.38;;
49610;SDS011;35515;48.766;9.176;2023-05-29T14:04:20;5.43;;;3.35;;
49610;SDS011;35515;48.766;9.176;2023-05-29T14:06:48;6.97;;;4.35;;
49610;SDS011;35515;48.766;9.176;2023-05-29T14:09:14;5.53;;;3.15;;
49610;SDS011;35515;48.766;9.176;2023-05-29T14:11:41;7.88;;;3.15;;
49610;SDS011;35515;48.766;9.176;2023-05-29T14:14:07;8.38;;;2.72;;
49610;SDS011;35515;48.766;9.176;2023-05-29T14:16:34;6.43;;;3.03;;
49610;SDS011;35515;48.766;9.176;2023-05-29T14:19:00;5.82;;;3.33;;
49610;SDS011;35515;48.766;9.176;2023-05-29T14:21:27;7.47;;;3.08;;
49610;SDS011;35515;48.766;9.176;2023-05-29T14:23:55;4.85;;;2.78;;
49610;SDS011;35515;48.766;9.176;2023-05-29T14:26:21;5.80;;;3.40;;
49610;SDS011;35515;48.766;9.176;2023-05-29T14:28:48;5.38;;;3.33;;
49610;SDS011;35515;48.766;9.176;2023-05-29T14:31:14;7.65;;;3.45;;
49610;SDS011;35515;48.766;9.176;2023-05-29T14:33:41;4.95;;;2.72;;
49610;SDS011;35515;48.766;9.176;2023-05-29T14:36:07;3.90;;;2.70;;
49610;SDS011;35515;48.766;9.176;2023-05-29T14:38:34;5.80;;;3.30;;
49610;SDS011;35515;48.766;9.176;2023-05-29T14:41:02;5.10;;;2.83;;
49610;SDS011;35515;48.766;9.176;2023-05-29T14:43:29;6.20;;;3.75;;
49610;SDS011;35515;48.766;9.176;2023-05-29T14:45:56;6.30;;;3.53;;
49610;SDS011;35515;48.766;9.176;2023-05-29T14:48:22;7.85;;;5.00;;
49610;SDS011;35515;48.766;9.176;2023-05-29T14:50:49;5.95;;;3.67;;
49610;SDS011;35515;48.766;9.176;2023-05-29T14:53:15;5.63;;;3.95;;
49610;SDS011;35515;48.766;9.176;2023-05-29T14:55:42;6.65;;;3.63;;